sensor_id;sensor_type;location;lat;lon;timestamp;pressure;altitude;pressure_sealevel;temperature;humidity
38253;BME280;24785;52.372;20.672;2022-09-12T00:06:35;100290.91;;;9.92;100.00
38253;BME280;24785;52.372;20.672;2022-09-12T00:16:36;100288.28;;;9.82;100.00
38253;BME280;24785;52.372;20.672;2022-09-12T00:26:38;100282.16;;;9.66;100.00
38253;BME280;24785;52.372;20.672;2022-09-12T00:36:39;100278.41;;;9.62;100.00
38253;BME280;24785;52.372;20.672;2022-09-12T00:46:47;100282.72;;;9.53;100.00
38253;BME280;24785;52.372;20.672;2022-09-12T00:56:53;100284.31;;;9.44;100.00
38253;BME280;24785;52.372;20.672;2022-09-12T01:06:57;100284.31;;;9.39;100.00
38253;BME280;24785;52.372;20.672;2022-09-12T01:16:58;100281.66;;;9.39;100.00
38253;BME280;24785;52.372;20.672;2022-09-12T01:27:15;100300.91;;;9.41;100.00
38253;BME280;24785;52.372;20.672;2022-09-12T01:37:36;100306.81;;;9.48;100.00
38253;BME280;24785;52.372;20.672;2022-09-12T01:47:50;100297.97;;;9.58;100.00
38253;BME280;24785;52.372;20.672;2022-09-12T01:58:11;100294.47;;;9.62;100.00
38253;BME280;24785;52.372;20.672;2022-09-12T02:08:16;100302.75;;;9.71;100.00
38253;BME280;24785;52.372;20.672;2022-09-12T02:18:20;100312.09;;;9.78;100.00
38253;BME280;24785;52.372;20.672;2022-09-12T02:28:25;100320.16;;;9.68;100.00
38253;BME280;24785;52.372;20.672;2022-09-12T02:38:37;100324.44;;;9.54;100.00
38253;BME280;24785;52.372;20.672;2022-09-12T02:48:41;100324.72;;;9.48;100.00
38253;BME280;24785;52.372;20.672;2022-09-12T02:58:43;100333.53;;;9.53;100.00
38253;BME280;24785;52.372;20.672;2022-09-12T03:08:52;100329.25;;;9.52;100.00
38253;BME280;24785;52.372;20.672;2022-09-12T03:19:08;100337.56;;;9.51;100.00
38253;BME280;24785;52.372;20.672;2022-09-12T03:29:15;100333.81;;;9.52;100.00
38253;BME280;24785;52.372;20.672;2022-09-12T03:39:18;100349.06;;;9.61;100.00
38253;BME280;24785;52.372;20.672;2022-09-12T03:49:19;100360.00;;;9.65;100.00
38253;BME280;24785;52.372;20.672;2022-09-12T03:59:20;100344.75;;;9.65;100.00
38253;BME280;24785;52.372;20.672;2022-09-12T04:09:21;100363.22;;;9.67;100.00
38253;BME280;24785;52.372;20.672;2022-09-12T04:19:22;100371.53;;;9.70;100.00
38253;BME280;24785;52.372;20.672;2022-09-12T04:29:23;100377.94;;;9.74;100.00
38253;BME280;24785;52.372;20.672;2022-09-12T04:39:24;100380.63;;;9.69;100.00
38253;BME280;24785;52.372;20.672;2022-09-12T04:49:25;100390.25;;;9.65;100.00
38253;BME280;24785;52.372;20.672;2022-09-12T04:59:26;100391.06;;;9.66;100.00
38253;BME280;24785;52.372;20.672;2022-09-12T05:09:27;100395.59;;;9.70;100.00
38253;BME280;24785;52.372;20.672;2022-09-12T05:19:29;100406.56;;;9.89;100.00
38253;BME280;24785;52.372;20.672;2022-09-12T05:29:30;100416.22;;;9.95;100.00
38253;BME280;24785;52.372;20.672;2022-09-12T05:39:31;100422.63;;;10.04;100.00
38253;BME280;24785;52.372;20.672;2022-09-12T05:49:33;100425.56;;;10.23;100.00
38253;BME280;24785;52.372;20.672;2022-09-12T05:59:34;100423.13;;;10.42;100.00
38253;BME280;24785;52.372;20.672;2022-09-12T06:09:35;100424.16;;;10.56;100.00
38253;BME280;24785;52.372;20.672;2022-09-12T06:19:36;100432.97;;;10.62;100.00
38253;BME280;24785;52.372;20.672;2022-09-12T06:29:37;100420.69;;;10.51;100.00
38253;BME280;24785;52.372;20.672;2022-09-12T06:39:38;100418.03;;;10.40;100.00
38253;BME280;24785;52.372;20.672;2022-09-12T06:49:39;100426.53;;;10.63;100.00
38253;BME280;24785;52.372;20.672;2022-09-12T06:59:39;100439.84;;;10.88;100.00
38253;BME280;24785;52.372;20.672;2022-09-12T07:09:40;100442.47;;;11.03;100.00
38253;BME280;24785;52.372;20.672;2022-09-12T07:19:41;100458.16;;;11.25;100.00
38253;BME280;24785;52.372;20.672;2022-09-12T07:29:42;100466.91;;;11.46;100.00
38253;BME280;24785;52.372;20.672;2022-09-12T07:39:46;100477.03;;;11.59;100.00
38253;BME280;24785;52.372;20.672;2022-09-12T07:49:47;100488.97;;;11.77;100.00
38253;BME280;24785;52.372;20.672;2022-09-12T07:59:47;100497.84;;;11.83;100.00
38253;BME280;24785;52.372;20.672;2022-09-12T08:09:48;100501.94;;;12.09;100.00
38253;BME280;24785;52.372;20.672;2022-09-12T08:19:49;100512.75;;;12.33;100.00
38253;BME280;24785;52.372;20.672;2022-09-12T08:29:50;100506.63;;;12.80;100.00
38253;BME280;24785;52.372;20.672;2022-09-12T08:39:51;100509.72;;;12.92;100.00
38253;BME280;24785;52.372;20.672;2022-09-12T08:59:53;100508.69;;;12.88;100.00
38253;BME280;24785;52.372;20.672;2022-09-12T09:10:23;100511.25;;;12.75;100.00
38253;BME280;24785;52.372;20.672;2022-09-12T09:30:33;100516.28;;;13.05;100.00
38253;BME280;24785;52.372;20.672;2022-09-12T09:51:08;100527.38;;;13.28;100.00
38253;BME280;24785;52.372;20.672;2022-09-12T10:01:19;100538.56;;;13.11;100.00
38253;BME280;24785;52.372;20.672;2022-09-12T10:11:21;100549.50;;;13.43;100.00
38253;BME280;24785;52.372;20.672;2022-09-12T10:21:39;100548.13;;;14.02;98.28
38253;BME280;24785;52.372;20.672;2022-09-12T10:31:48;100559.28;;;13.77;97.17
38253;BME280;24785;52.372;20.672;2022-09-12T10:41:50;100555.56;;;13.73;100.00
38253;BME280;24785;52.372;20.672;2022-09-12T10:51:52;100567.00;;;13.83;96.77
38253;BME280;24785;52.372;20.672;2022-09-12T11:33:11;100567.78;;;14.87;91.74
38253;BME280;24785;52.372;20.672;2022-09-12T11:53:26;100585.25;;;14.43;90.99
38253;BME280;24785;52.372;20.672;2022-09-12T12:03:41;100577.16;;;14.75;90.45
38253;BME280;24785;52.372;20.672;2022-09-12T12:24:02;100569.00;;;15.22;84.63
38253;BME280;24785;52.372;20.672;2022-09-12T12:34:20;100566.41;;;15.17;85.82
38253;BME280;24785;52.372;20.672;2022-09-12T12:44:58;100585.84;;;14.72;87.40
38253;BME280;24785;52.372;20.672;2022-09-12T12:55:00;100581.78;;;14.56;90.64
38253;BME280;24785;52.372;20.672;2022-09-12T13:05:05;100579.44;;;14.68;89.95
38253;BME280;24785;52.372;20.672;2022-09-12T13:15:46;100590.19;;;15.15;88.40
38253;BME280;24785;52.372;20.672;2022-09-12T13:25:52;100590.00;;;15.66;87.88
38253;BME280;24785;52.372;20.672;2022-09-12T13:46:00;100582.66;;;15.80;84.78
38253;BME280;24785;52.372;20.672;2022-09-12T13:56:01;100579.16;;;15.80;81.35
38253;BME280;24785;52.372;20.672;2022-09-12T14:06:03;100578.22;;;15.84;79.71
38253;BME280;24785;52.372;20.672;2022-09-12T14:16:08;100578.34;;;16.15;79.65
38253;BME280;24785;52.372;20.672;2022-09-12T14:26:12;100569.34;;;16.06;80.05
38253;BME280;24785;52.372;20.672;2022-09-12T14:36:23;100568.03;;;16.17;80.88
38253;BME280;24785;52.372;20.672;2022-09-12T14:46:32;100557.91;;;15.87;81.59
38253;BME280;24785;52.372;20.672;2022-09-12T14:56:42;100565.78;;;15.97;82.72
38253;BME280;24785;52.372;20.672;2022-09-12T15:06:43;100576.56;;;16.11;82.09
38253;BME280;24785;52.372;20.672;2022-09-12T15:16:44;100576.53;;;15.88;81.51
38253;BME280;24785;52.372;20.672;2022-09-12T15:43:42;100582.47;;;15.35;89.00
38253;BME280;24785;52.372;20.672;2022-09-12T15:53:44;100586.09;;;15.31;86.97
38253;BME280;24785;52.372;20.672;2022-09-12T16:03:45;100585.38;;;14.98;92.77
38253;BME280;24785;52.372;20.672;2022-09-12T16:13:47;100594.63;;;14.78;98.83
38253;BME280;24785;52.372;20.672;2022-09-12T16:23:48;100598.56;;;14.53;100.00
38253;BME280;24785;52.372;20.672;2022-09-12T16:33:49;100597.25;;;14.51;100.00
38253;BME280;24785;52.372;20.672;2022-09-12T16:43:50;100585.59;;;14.17;100.00
38253;BME280;24785;52.372;20.672;2022-09-12T16:53:53;100591.38;;;13.92;100.00
38253;BME280;24785;52.372;20.672;2022-09-12T17:03:56;100606.41;;;13.55;100.00
38253;BME280;24785;52.372;20.672;2022-09-12T17:13:58;100593.69;;;13.61;100.00
38253;BME280;24785;52.372;20.672;2022-09-12T17:24:00;100591.69;;;13.48;100.00
38253;BME280;24785;52.372;20.672;2022-09-12T17:34:00;100591.78;;;13.14;100.00
38253;BME280;24785;52.372;20.672;2022-09-12T17:44:02;100592.59;;;13.14;100.00
38253;BME280;24785;52.372;20.672;2022-09-12T17:54:05;100590.25;;;13.08;100.00
38253;BME280;24785;52.372;20.672;2022-09-12T18:04:08;100603.47;;;13.04;100.00
38253;BME280;24785;52.372;20.672;2022-09-12T18:14:10;100605.69;;;12.97;100.00
38253;BME280;24785;52.372;20.672;2022-09-12T18:24:11;100608.72;;;12.90;100.00
38253;BME280;24785;52.372;20.672;2022-09-12T18:34:13;100610.41;;;12.52;100.00
38253;BME280;24785;52.372;20.672;2022-09-12T18:44:14;100605.63;;;12.05;100.00
38253;BME280;24785;52.372;20.672;2022-09-12T18:54:15;100608.72;;;11.83;100.00
38253;BME280;24785;52.372;20.672;2022-09-12T19:04:17;100590.53;;;11.65;100.00
38253;BME280;24785;52.372;20.672;2022-09-12T19:14:21;100582.19;;;11.66;100.00
38253;BME280;24785;52.372;20.672;2022-09-12T19:24:23;100572.00;;;11.63;100.00
38253;BME280;24785;52.372;20.672;2022-09-12T19:34:24;100556.50;;;11.50;100.00
38253;BME280;24785;52.372;20.672;2022-09-12T19:44:24;100547.00;;;11.14;100.00
38253;BME280;24785;52.372;20.672;2022-09-12T19:54:27;100543.13;;;10.55;100.00
38253;BME280;24785;52.372;20.672;2022-09-12T20:04:28;100541.25;;;10.30;100.00
38253;BME280;24785;52.372;20.672;2022-09-12T20:14:29;100533.97;;;9.85;100.00
38253;BME280;24785;52.372;20.672;2022-09-12T20:24:30;100523.97;;;9.45;100.00
38253;BME280;24785;52.372;20.672;2022-09-12T20:34:31;100519.09;;;9.22;100.00
38253;BME280;24785;52.372;20.672;2022-09-12T20:44:32;100528.81;;;8.91;100.00
38253;BME280;24785;52.372;20.672;2022-09-12T20:54:33;100532.16;;;8.66;100.00
38253;BME280;24785;52.372;20.672;2022-09-12T21:04:34;100537.69;;;8.22;100.00
38253;BME280;24785;52.372;20.672;2022-09-12T21:14:34;100542.09;;;7.79;100.00
38253;BME280;24785;52.372;20.672;2022-09-12T21:24:35;100532.28;;;7.58;100.00
38253;BME280;24785;52.372;20.672;2022-09-12T21:34:36;100528.34;;;7.17;100.00
38253;BME280;24785;52.372;20.672;2022-09-12T21:44:37;100525.34;;;7.35;100.00
38253;BME280;24785;52.372;20.672;2022-09-12T21:54:38;100525.78;;;6.83;100.00
38253;BME280;24785;52.372;20.672;2022-09-12T22:04:39;100519.28;;;6.57;100.00
38253;BME280;24785;52.372;20.672;2022-09-12T22:14:40;100525.25;;;6.48;100.00
38253;BME280;24785;52.372;20.672;2022-09-12T22:24:41;100505.75;;;6.42;100.00
38253;BME280;24785;52.372;20.672;2022-09-12T22:34:42;100514.00;;;6.24;100.00
38253;BME280;24785;52.372;20.672;2022-09-12T22:44:43;100519.16;;;5.85;100.00
38253;BME280;24785;52.372;20.672;2022-09-12T22:54:44;100528.53;;;5.31;100.00
38253;BME280;24785;52.372;20.672;2022-09-12T23:04:46;100519.75;;;5.30;100.00
38253;BME280;24785;52.372;20.672;2022-09-12T23:14:48;100506.03;;;5.22;100.00
38253;BME280;24785;52.372;20.672;2022-09-12T23:24:48;100496.72;;;4.96;100.00
38253;BME280;24785;52.372;20.672;2022-09-12T23:34:49;100497.00;;;4.83;100.00
38253;BME280;24785;52.372;20.672;2022-09-12T23:44:51;100504.03;;;4.65;100.00
38253;BME280;24785;52.372;20.672;2022-09-12T23:54:52;100514.31;;;4.27;100.00
